KVGT/VGT METAR and TAF weather

Enter ICAO airport designator
Station Type Date Time Source
KVGT METAR 2019/06/19 00:53 UTC NOAA

KVGT 190053Z 24003KT 10SM CLR 37/04 A2982 RMK AO2 SLP085 T03670039


Station Type Date Time Source
KVGT Decoded METAR 2019/06/19 00:53 UTC NOAA

NORTH LAS VEGAS, NV, United States (KVGT) 36-12N 115-11W
Jun 18, 2019 - 08:53 PM EDT / 2019.06.19 0053 UTC
Wind: from the WSW (240 degrees) at 3 MPH (3 KT):0
Visibility: 10 mile(s):0
Sky conditions: clear
Temperature: 98.1 F (36.7 C)
Dew Point: 39.0 F (3.9 C)
Relative Humidity: 13%
Pressure (altimeter): 29.82 in. Hg (1009 hPa)
ob: KVGT 190053Z 24003KT 10SM CLR 37/04 A2982 RMK AO2 SLP085 T03670039
cycle: 1

Station Type Date Time Source
KVGT TAF 2019/06/18 18:24 UTC NOAA

TAF KVGT 181723Z 1818/1918 08006KT P6SM FEW120 FEW250
FM182000 15007KT P6SM FEW120 FEW250
FM191000 35005KT P6SM SKC

Example: see airport list